createdAt,value
2024-04-22T00:00:21.789Z,8.40
2024-04-22T00:03:27.044Z,7.50
2024-04-22T00:06:37.746Z,8.77
2024-04-22T00:09:46.116Z,8.38
2024-04-22T00:12:51.068Z,8.10
2024-04-22T00:15:56.190Z,9.10
2024-04-22T00:18:58.554Z,9.55
2024-04-22T00:22:06.683Z,9.00
2024-04-22T00:25:09.009Z,8.45
2024-04-22T00:28:14.028Z,8.93
2024-04-22T00:31:19.127Z,8.15
2024-04-22T00:34:21.708Z,7.68
2024-04-22T00:37:29.676Z,10.77
2024-04-22T00:40:32.119Z,7.78
2024-04-22T00:43:37.211Z,8.73
2024-04-22T00:46:42.641Z,8.05
2024-04-22T00:49:48.266Z,9.00
2024-04-22T00:52:56.457Z,8.70
2024-04-22T00:56:02.088Z,8.18
2024-04-22T00:59:05.076Z,7.93
2024-04-22T01:02:10.004Z,9.70
2024-04-22T01:05:15.174Z,10.90
2024-04-22T01:08:20.506Z,8.43
2024-04-22T01:11:25.781Z,8.20
2024-04-22T01:14:29.657Z,9.07
2024-04-22T01:17:42.382Z,8.23
2024-04-22T01:20:47.539Z,8.23
2024-04-22T01:23:53.934Z,7.53
2024-04-22T01:27:03.750Z,8.32
2024-04-22T01:30:10.328Z,7.67
2024-04-22T01:33:12.664Z,9.15
2024-04-22T01:36:17.737Z,9.73
2024-04-22T01:39:22.768Z,9.15
2024-04-22T01:42:28.498Z,8.48
2024-04-22T01:45:30.828Z,7.63
2024-04-22T01:48:35.984Z,7.30
2024-04-22T01:51:40.940Z,8.77
2024-04-22T01:54:46.000Z,7.85
2024-04-22T01:57:51.102Z,8.35
2024-04-22T02:00:53.645Z,10.37
2024-04-22T02:03:58.674Z,9.43
2024-04-22T02:07:01.238Z,7.80
2024-04-22T02:10:21.271Z,10.13
2024-04-22T02:13:26.188Z,7.82
2024-04-22T02:16:31.473Z,9.20
2024-04-22T02:19:33.966Z,14.20
2024-04-22T02:22:39.184Z,9.90
2024-04-22T02:25:48.388Z,7.80
2024-04-22T02:28:51.153Z,8.60
2024-04-22T02:31:56.166Z,8.53
2024-04-22T02:35:01.281Z,7.38
2024-04-22T02:38:06.894Z,9.63
2024-04-22T02:41:11.908Z,7.90
2024-04-22T02:44:16.857Z,8.52
2024-04-22T02:47:19.202Z,9.07
2024-04-22T02:50:24.235Z,8.90
2024-04-22T02:53:26.502Z,8.68
2024-04-22T02:56:34.107Z,8.77
2024-04-22T02:59:36.505Z,7.57
2024-04-22T03:02:41.599Z,7.40
2024-04-22T03:05:46.534Z,11.93
2024-04-22T03:08:51.307Z,9.93
2024-04-22T03:11:59.030Z,8.50
2024-04-22T03:15:01.479Z,8.85
2024-04-22T03:18:07.203Z,9.23
2024-04-22T03:21:09.623Z,10.05
2024-04-22T03:24:14.659Z,9.43
2024-04-22T03:27:21.431Z,8.95
2024-04-22T03:30:26.454Z,9.10
2024-04-22T03:33:28.930Z,10.87
2024-04-22T03:36:34.309Z,9.43
2024-04-22T03:39:39.431Z,9.35
2024-04-22T03:42:47.049Z,9.43
2024-04-22T03:46:12.160Z,9.48
2024-04-22T03:49:33.053Z,8.30
2024-04-22T03:52:40.771Z,10.25
2024-04-22T03:55:46.425Z,10.40
2024-04-22T03:58:54.058Z,9.65
2024-04-22T04:01:59.051Z,10.43
2024-04-22T04:05:01.587Z,9.63
2024-04-22T04:08:07.376Z,10.10
2024-04-22T04:11:15.161Z,11.48
2024-04-22T04:14:24.003Z,9.60
2024-04-22T04:17:29.281Z,9.52
2024-04-22T04:20:37.241Z,8.67
2024-04-22T04:23:42.198Z,10.77
2024-04-22T04:26:44.566Z,11.15
2024-04-22T04:29:52.259Z,10.77
2024-04-22T04:32:58.316Z,10.00
2024-04-22T04:36:02.620Z,9.63
2024-04-22T04:39:08.014Z,10.63
2024-04-22T04:42:10.341Z,12.25
2024-04-22T04:45:18.076Z,13.70
2024-04-22T04:48:21.524Z,10.10
2024-04-22T04:51:26.492Z,8.57
2024-04-22T04:54:28.926Z,10.55
2024-04-22T04:57:34.000Z,9.38
2024-04-22T05:00:40.982Z,11.32
2024-04-22T05:03:45.959Z,11.13
2024-04-22T05:06:49.252Z,10.07
2024-04-22T05:09:54.979Z,10.68
2024-04-22T05:13:36.128Z,10.95
2024-04-22T05:16:33.959Z,10.68
2024-04-22T05:19:39.136Z,13.90
2024-04-22T05:22:44.844Z,12.83
2024-04-22T05:25:50.364Z,17.33
2024-04-22T05:29:02.120Z,10.40
2024-04-22T05:32:10.824Z,10.57
2024-04-22T05:35:31.444Z,11.13
2024-04-22T05:38:36.556Z,10.23
2024-04-22T05:41:41.681Z,11.18
2024-04-22T05:44:47.125Z,10.32
2024-04-22T05:47:57.486Z,10.40
2024-04-22T05:51:03.506Z,8.40
2024-04-22T05:54:48.359Z,9.67
2024-04-22T05:58:38.756Z,8.90
2024-04-22T06:06:30.669Z,16.90
2024-04-22T06:09:44.536Z,10.57
2024-04-22T06:13:15.274Z,10.13
2024-04-22T06:16:20.693Z,9.90
2024-04-22T06:19:30.294Z,9.70
2024-04-22T06:22:59.898Z,13.30
2024-04-22T06:26:27.347Z,12.60
2024-04-22T06:29:47.829Z,9.03
2024-04-22T06:32:57.134Z,9.27
2024-04-22T06:36:02.321Z,8.88
2024-04-22T06:39:09.721Z,10.18
2024-04-22T06:42:48.233Z,12.25
2024-04-22T06:46:41.648Z,11.97
2024-04-22T06:50:11.751Z,11.07
2024-04-22T06:53:14.397Z,12.80
2024-04-22T06:56:24.999Z,9.32
2024-04-22T06:59:27.560Z,11.73
2024-04-22T07:02:32.810Z,11.27
2024-04-22T07:05:35.391Z,9.93
2024-04-22T07:08:40.670Z,9.60
2024-04-22T07:11:45.990Z,13.55
2024-04-22T07:14:51.241Z,10.27
2024-04-22T07:17:58.338Z,12.90
2024-04-22T07:21:03.597Z,13.50
2024-04-22T07:24:07.181Z,10.68
2024-04-22T07:27:23.514Z,12.40
2024-04-22T07:30:34.122Z,12.38
2024-04-22T07:33:45.271Z,15.03
2024-04-22T07:36:53.424Z,15.48
2024-04-22T07:40:05.754Z,11.02
2024-04-22T07:43:11.162Z,8.57
2024-04-22T07:46:16.381Z,14.30
2024-04-22T07:49:21.744Z,10.50
2024-04-22T07:52:27.859Z,11.05
2024-04-22T07:55:38.732Z,11.82
2024-04-22T07:58:46.214Z,9.50
2024-04-22T08:02:10.001Z,11.10
2024-04-22T08:05:32.287Z,8.97
2024-04-22T08:08:57.385Z,11.15
2024-04-22T08:12:10.921Z,9.00
2024-04-22T08:16:48.560Z,9.35
2024-04-22T08:30:57.859Z,9.13
2024-04-22T08:44:30.028Z,10.88
2024-04-22T08:47:36.773Z,10.30
2024-04-22T08:51:11.320Z,11.48
2024-04-22T08:54:25.213Z,8.73
2024-04-22T08:58:21.945Z,8.57
2024-04-22T09:01:29.548Z,8.77
2024-04-22T09:04:36.393Z,11.43
2024-04-22T09:07:39.937Z,7.95
2024-04-22T09:11:21.488Z,8.20
2024-04-22T09:14:12.460Z,8.77
2024-04-22T09:17:29.620Z,8.70
2024-04-22T09:20:35.694Z,8.30
2024-04-22T09:24:20.012Z,8.38
2024-04-22T09:28:31.797Z,11.07
2024-04-22T09:31:53.098Z,8.45
2024-04-22T09:38:38.968Z,8.75
2024-04-22T09:40:57.667Z,7.97
2024-04-22T09:58:05.568Z,10.18
2024-04-22T10:02:45.737Z,8.87
2024-04-22T10:06:10.981Z,10.43
2024-04-22T10:09:23.579Z,7.18
2024-04-22T10:12:29.683Z,9.55
2024-04-22T10:15:37.584Z,8.20
2024-04-22T10:18:46.730Z,12.73
2024-04-22T10:21:53.390Z,7.82
2024-04-22T10:24:55.890Z,8.25
2024-04-22T10:28:03.785Z,8.32
2024-04-22T10:31:09.338Z,7.10
2024-04-22T10:34:14.480Z,7.93
2024-04-22T10:37:31.125Z,7.93
2024-04-22T10:40:33.934Z,7.60
2024-04-22T10:43:39.954Z,8.20
2024-04-22T10:50:44.926Z,6.73
2024-04-22T10:54:01.938Z,7.50
2024-04-22T10:57:16.345Z,6.88
2024-04-22T11:01:09.320Z,6.57
2024-04-22T11:04:33.773Z,6.68
2024-04-22T11:07:47.975Z,7.73
2024-04-22T11:14:59.322Z,6.93
2024-04-22T11:18:13.826Z,7.15
2024-04-22T11:21:36.791Z,5.38
2024-04-22T11:24:39.817Z,8.07
2024-04-22T11:27:47.041Z,6.78
2024-04-22T11:30:49.991Z,5.70
2024-04-22T11:33:55.233Z,6.60
2024-04-22T11:37:54.895Z,10.60
2024-04-22T11:49:17.794Z,5.43
2024-04-22T11:56:53.116Z,5.82
2024-04-22T12:00:10.014Z,6.63
2024-04-22T12:03:15.172Z,6.95
2024-04-22T12:06:20.350Z,6.30
2024-04-22T12:09:38.677Z,5.05
2024-04-22T12:12:44.353Z,4.60
2024-04-22T12:19:57.975Z,4.57
2024-04-22T12:23:12.821Z,3.92
2024-04-22T12:27:07.163Z,15.45
2024-04-22T12:44:49.541Z,4.78
2024-04-22T12:48:35.206Z,4.35
2024-04-22T12:52:50.030Z,7.38
2024-04-22T12:56:10.780Z,4.57
2024-04-22T12:59:16.683Z,5.13
2024-04-22T13:02:24.806Z,4.50
2024-04-22T13:05:39.332Z,7.97
2024-04-22T13:08:44.322Z,5.88
2024-04-22T13:11:52.174Z,8.17
2024-04-22T13:15:00.923Z,7.30
2024-04-22T13:18:12.450Z,5.85
2024-04-22T13:21:18.530Z,6.45
2024-04-22T13:24:31.937Z,6.85
2024-04-22T13:27:56.192Z,5.80
2024-04-22T13:31:05.879Z,6.50
2024-04-22T13:34:17.038Z,8.05
2024-04-22T13:37:55.954Z,8.07
2024-04-22T13:41:29.511Z,7.05
2024-04-22T13:44:47.014Z,6.30
2024-04-22T13:48:17.657Z,8.00
2024-04-22T13:51:27.304Z,5.72
2024-04-22T13:54:29.871Z,5.72
2024-04-22T13:57:55.603Z,6.30
2024-04-22T14:01:05.121Z,9.83
2024-04-22T14:04:11.047Z,9.88
2024-04-22T14:07:17.698Z,5.53
2024-04-22T14:10:24.251Z,6.82
2024-04-22T14:13:30.351Z,6.07
2024-04-22T14:16:34.275Z,5.50
2024-04-22T14:19:40.716Z,6.72
2024-04-22T14:22:48.786Z,5.72
2024-04-22T14:25:55.649Z,5.18
2024-04-22T14:29:00.579Z,5.65
2024-04-22T14:32:06.913Z,5.83
2024-04-22T14:35:11.150Z,8.27
2024-04-22T14:38:21.365Z,5.90
2024-04-22T14:41:24.039Z,5.30
2024-04-22T14:44:29.371Z,8.65
2024-04-22T14:47:40.481Z,5.17
2024-04-22T14:50:58.239Z,5.65
2024-04-22T14:54:06.719Z,4.93
2024-04-22T14:57:12.034Z,5.25
2024-04-22T15:00:21.812Z,5.15
2024-04-22T15:03:55.863Z,5.70
2024-04-22T15:07:11.342Z,5.70
2024-04-22T15:10:57.676Z,9.20
2024-04-22T15:15:14.877Z,6.45
2024-04-22T15:18:49.423Z,8.52
2024-04-22T15:22:17.283Z,6.03
2024-04-22T15:29:49.812Z,7.13
2024-04-22T15:32:53.088Z,5.45
2024-04-22T15:36:00.814Z,6.68
2024-04-22T15:39:18.846Z,10.53
2024-04-22T15:42:24.522Z,6.07
2024-04-22T15:45:32.611Z,9.45
2024-04-22T15:49:34.817Z,6.40
2024-04-22T15:52:45.289Z,6.40
2024-04-22T16:00:02.508Z,5.82
2024-04-22T16:03:38.534Z,5.60
2024-04-22T16:06:47.598Z,6.97
2024-04-22T16:09:52.646Z,5.47
2024-04-22T16:13:51.278Z,5.00
2024-04-22T16:25:54.355Z,5.80
2024-04-22T16:29:09.891Z,6.38
2024-04-22T16:32:49.083Z,7.70
2024-04-22T16:36:29.783Z,7.85
2024-04-22T16:44:28.999Z,6.13
2024-04-22T16:47:36.017Z,4.78
2024-04-22T16:50:46.056Z,6.90
2024-04-22T16:59:24.326Z,5.63
2024-04-22T17:15:35.435Z,6.88
2024-04-22T17:18:47.213Z,6.57
2024-04-22T17:21:55.850Z,5.47
2024-04-22T17:25:02.640Z,5.85
2024-04-22T17:28:18.521Z,5.80
2024-04-22T17:31:26.263Z,5.72
2024-04-22T17:34:32.192Z,6.18
2024-04-22T17:37:37.909Z,9.63
2024-04-22T17:40:44.963Z,5.82
2024-04-22T17:44:02.673Z,6.23
2024-04-22T17:47:08.637Z,6.18
2024-04-22T17:50:31.847Z,6.47
2024-04-22T17:53:39.564Z,7.43
2024-04-22T17:56:56.547Z,7.18
2024-04-22T18:00:08.638Z,7.90
2024-04-22T18:03:14.095Z,7.65
2024-04-22T18:06:18.986Z,8.80
2024-04-22T18:09:27.863Z,8.02
2024-04-22T18:12:33.264Z,11.65
2024-04-22T18:15:38.915Z,7.60
2024-04-22T18:18:52.336Z,7.60
2024-04-22T18:21:59.225Z,9.35
2024-04-22T18:25:39.040Z,8.65
2024-04-22T18:28:48.505Z,7.70
2024-04-22T18:32:15.582Z,8.53
2024-04-22T18:35:24.630Z,7.60
2024-04-22T18:38:33.226Z,9.80
2024-04-22T18:41:40.831Z,8.45
2024-04-22T18:44:43.734Z,7.53
2024-04-22T18:47:54.947Z,8.50
2024-04-22T18:51:00.602Z,9.98
2024-04-22T18:54:12.143Z,9.05
2024-04-22T18:57:18.073Z,9.45
2024-04-22T19:00:21.486Z,8.10
2024-04-22T19:03:54.747Z,7.53
2024-04-22T19:06:58.103Z,9.40
2024-04-22T19:10:04.511Z,8.13
2024-04-22T19:13:08.733Z,7.75
2024-04-22T19:16:20.489Z,7.45
2024-04-22T19:19:29.752Z,9.10
2024-04-22T19:22:57.239Z,8.18
2024-04-22T19:26:10.698Z,9.10
2024-04-22T19:29:16.185Z,8.30
2024-04-22T19:32:35.037Z,8.25
2024-04-22T19:35:49.892Z,7.87
2024-04-22T19:38:56.753Z,8.57
2024-04-22T19:42:02.239Z,7.80
2024-04-22T19:45:09.018Z,8.32
2024-04-22T19:48:12.073Z,9.15
2024-04-22T19:51:21.255Z,10.77
2024-04-22T19:54:24.121Z,8.52
2024-04-22T19:57:30.290Z,9.00
2024-04-22T20:00:36.679Z,7.93
2024-04-22T20:03:48.646Z,8.60
2024-04-22T20:06:56.087Z,8.83
2024-04-22T20:10:03.347Z,9.90
2024-04-22T20:13:09.074Z,8.88
2024-04-22T20:16:16.578Z,8.43
2024-04-22T20:19:23.830Z,8.27
2024-04-22T20:22:31.279Z,8.63
2024-04-22T20:25:40.090Z,9.80
2024-04-22T20:28:59.598Z,9.48
2024-04-22T20:32:16.376Z,9.88
2024-04-22T20:35:19.077Z,8.45
2024-04-22T20:42:02.440Z,10.30
2024-04-22T20:45:06.604Z,8.85
2024-04-22T20:48:12.494Z,9.05
2024-04-22T20:51:28.482Z,9.68
2024-04-22T20:54:49.397Z,9.23
2024-04-22T20:57:52.576Z,9.10
2024-04-22T21:00:58.484Z,9.23
2024-04-22T21:04:06.515Z,11.63
2024-04-22T21:07:09.024Z,9.85
2024-04-22T21:10:22.808Z,10.63
2024-04-22T21:13:26.706Z,9.55
2024-04-22T21:16:34.013Z,10.23
2024-04-22T21:19:41.634Z,8.48
2024-04-22T21:22:49.521Z,12.15
2024-04-22T21:25:55.177Z,13.07
2024-04-22T21:29:03.996Z,10.10
2024-04-22T21:36:47.446Z,10.25
2024-04-22T21:39:49.993Z,10.68
2024-04-22T21:42:57.835Z,9.93
2024-04-22T21:49:21.728Z,10.63
2024-04-22T21:52:24.791Z,10.98
2024-04-22T21:55:57.219Z,9.25
2024-04-22T21:59:39.970Z,10.73
2024-04-22T22:03:22.991Z,11.32
2024-04-22T22:07:03.115Z,10.02
2024-04-22T22:10:12.559Z,10.73
2024-04-22T22:13:21.096Z,10.70
2024-04-22T22:16:26.344Z,10.33
2024-04-22T22:19:29.297Z,13.07
2024-04-22T22:22:34.475Z,10.05
2024-04-22T22:25:39.699Z,12.75
2024-04-22T22:28:45.023Z,12.30
2024-04-22T22:31:50.693Z,11.47
2024-04-22T22:34:58.103Z,10.60
2024-04-22T22:38:03.299Z,11.40
2024-04-22T22:41:08.539Z,11.60
2024-04-22T22:44:16.507Z,10.82
2024-04-22T22:47:22.361Z,12.33
2024-04-22T22:50:27.564Z,11.75
2024-04-22T22:53:37.998Z,9.52
2024-04-22T22:56:43.670Z,10.20
2024-04-22T22:59:49.063Z,10.85
2024-04-22T23:02:52.753Z,13.50
2024-04-22T23:05:57.822Z,11.93
2024-04-22T23:09:04.635Z,10.68
2024-04-22T23:12:12.610Z,11.60
2024-04-22T23:15:19.760Z,12.98
2024-04-22T23:18:26.338Z,13.43
2024-04-22T23:21:28.852Z,13.48
2024-04-22T23:24:36.272Z,12.77
2024-04-22T23:27:44.439Z,13.13
2024-04-22T23:30:51.484Z,13.40
2024-04-22T23:33:54.696Z,12.43
2024-04-22T23:37:00.071Z,12.90
2024-04-22T23:40:02.719Z,12.60
2024-04-22T23:43:10.587Z,11.00
2024-04-22T23:46:13.473Z,10.60
2024-04-22T23:49:19.035Z,13.17
2024-04-22T23:52:21.646Z,12.65
2024-04-22T23:55:26.807Z,12.18
2024-04-22T23:58:38.700Z,15.00
